Time;durP1;ratioP1;P1;durP2;ratioP2;P2;SDS_P1;SDS_P2;PMS_P1;PMS_P2;Temp;Humidity;BMP_temperature;BMP_pressure;BME280_temperature;BME280_humidity;BME280_pressure;Samples;Min_cycle;Max_cycle;Signal;HPM_P1;HPM_P2
2024/02/03 00:00:46;;;;;;;20.23;12.80;;;11.20;99.90;;;;;;5072553;28;20207;-74
2024/02/03 00:03:12;;;;;;;14.52;11.82;;;11.10;99.90;;;;;;5077440;28;20234;-73
2024/02/03 00:05:40;;;;;;;16.55;13.75;;;11.10;99.90;;;;;;5078477;28;20276;-72
2024/02/03 00:08:07;;;;;;;21.48;16.13;;;11.00;99.90;;;;;;5087307;28;20194;-73
2024/02/03 00:10:34;;;;;;;22.20;14.75;;;11.00;99.90;;;;;;5081331;28;20203;-72
2024/02/03 00:13:01;;;;;;;18.85;13.95;;;11.10;99.90;;;;;;5076299;28;20219;-75
2024/02/03 00:15:33;;;;;;;21.42;16.80;;;11.10;99.90;;;;;;5086340;28;20234;-71
2024/02/03 00:18:00;;;;;;;20.13;14.95;;;11.10;99.90;;;;;;5077443;28;20230;-73
2024/02/03 00:20:27;;;;;;;21.60;15.93;;;11.00;99.90;;;;;;5073740;28;20372;-74
2024/02/03 00:22:55;;;;;;;22.50;15.65;;;10.90;99.90;;;;;;5074612;28;20231;-77
2024/02/03 00:25:22;;;;;;;21.42;16.67;;;11.00;99.90;;;;;;5077715;28;20234;-73
2024/02/03 00:27:50;;;;;;;23.92;16.75;;;10.90;99.90;;;;;;5079064;28;20210;-75
2024/02/03 00:30:17;;;;;;;25.60;19.13;;;10.90;99.90;;;;;;5072121;28;20257;-74
2024/02/03 00:32:46;;;;;;;25.10;19.05;;;10.90;99.90;;;;;;5074226;28;20641;-72
2024/02/03 00:35:13;;;;;;;26.55;19.33;;;10.80;99.90;;;;;;5074610;28;20205;-74
2024/02/03 00:37:40;;;;;;;27.02;17.35;;;10.80;99.90;;;;;;5078800;28;20229;-72
2024/02/03 00:40:08;;;;;;;28.77;20.85;;;10.80;99.90;;;;;;5080316;28;20245;-75
2024/02/03 00:42:35;;;;;;;29.42;19.23;;;10.70;99.90;;;;;;5077808;28;20267;-73
2024/02/03 00:45:03;;;;;;;26.45;20.35;;;10.70;99.90;;;;;;5076314;28;20210;-74
2024/02/03 00:47:30;;;;;;;29.52;20.33;;;10.70;99.90;;;;;;5082448;28;20206;-74
2024/02/03 00:50:01;;;;;;;33.70;22.45;;;10.80;99.90;;;;;;5077545;28;20285;-71
2024/02/03 00:52:27;;;;;;;24.77;18.80;;;10.60;99.90;;;;;;5077208;28;20222;-73
2024/02/03 00:54:54;;;;;;;33.40;20.15;;;10.60;99.90;;;;;;5072461;28;20634;-73
2024/02/03 00:57:21;;;;;;;25.58;20.77;;;10.70;99.90;;;;;;5082321;28;20219;-75
2024/02/03 00:59:48;;;;;;;27.33;20.77;;;10.60;99.90;;;;;;5082080;28;20203;-73
2024/02/03 01:02:15;;;;;;;30.20;19.80;;;10.60;99.90;;;;;;5072753;28;20618;-73
2024/02/03 01:04:43;;;;;;;30.77;21.80;;;10.60;99.90;;;;;;5076755;28;20611;-72
2024/02/03 01:07:11;;;;;;;32.45;21.40;;;10.50;99.90;;;;;;5077750;28;20195;-76
2024/02/03 01:09:38;;;;;;;28.55;20.27;;;10.50;99.90;;;;;;5074342;28;20207;-70
2024/02/03 01:12:06;;;;;;;33.22;20.65;;;10.50;99.90;;;;;;5086912;28;20281;-72
2024/02/03 01:14:33;;;;;;;38.10;22.33;;;10.50;99.90;;;;;;5079358;28;20298;-71
2024/02/03 01:17:02;;;;;;;35.47;22.92;;;10.50;99.90;;;;;;5090783;28;20199;-70
2024/02/03 01:19:29;;;;;;;27.00;19.10;;;10.40;99.90;;;;;;5085015;28;20206;-70
2024/02/03 01:21:56;;;;;;;27.40;19.60;;;10.40;99.90;;;;;;5080411;28;20285;-73
2024/02/03 01:24:25;;;;;;;26.75;18.15;;;10.40;99.90;;;;;;5082459;28;20207;-73
2024/02/03 01:26:52;;;;;;;27.25;19.20;;;10.40;99.90;;;;;;5083702;28;20266;-76
2024/02/03 01:29:19;;;;;;;21.48;17.27;;;10.40;99.90;;;;;;5078449;28;20254;-75
2024/02/03 01:31:46;;;;;;;30.52;19.52;;;10.30;99.90;;;;;;5082960;28;20210;-75
2024/02/03 01:34:13;;;;;;;23.52;17.40;;;10.30;99.90;;;;;;5079095;28;20557;-76
2024/02/03 01:36:40;;;;;;;18.30;14.52;;;10.30;99.90;;;;;;5079268;28;20223;-72
2024/02/03 01:39:07;;;;;;;28.77;20.60;;;10.40;99.90;;;;;;5083492;28;20224;-75
2024/02/03 01:41:35;;;;;;;25.95;19.80;;;10.30;99.90;;;;;;5079633;28;20254;-74
2024/02/03 01:44:02;;;;;;;20.45;14.98;;;10.30;99.90;;;;;;5075232;28;20219;-73
2024/02/03 01:46:30;;;;;;;27.83;16.33;;;10.40;99.90;;;;;;5078388;28;20226;-75
2024/02/03 01:48:57;;;;;;;19.67;15.18;;;10.40;99.90;;;;;;5081231;28;20638;-74
2024/02/03 01:51:25;;;;;;;23.40;16.13;;;10.40;99.90;;;;;;5085502;28;20237;-74
2024/02/03 01:53:53;;;;;;;22.67;15.95;;;10.40;99.90;;;;;;5079494;28;20219;-73
2024/02/03 01:56:21;;;;;;;20.95;16.38;;;10.40;99.90;;;;;;5087170;28;20706;-74
2024/02/03 01:58:49;;;;;;;22.40;16.83;;;10.40;99.90;;;;;;5085611;28;20625;-72
2024/02/03 02:01:16;;;;;;;25.35;19.70;;;10.40;99.90;;;;;;5085187;28;20259;-70
2024/02/03 02:03:45;;;;;;;21.73;16.45;;;10.30;99.90;;;;;;5086618;28;20276;-74
2024/02/03 02:06:12;;;;;;;23.95;18.23;;;10.40;99.90;;;;;;5087959;28;20201;-72
2024/02/03 02:08:39;;;;;;;21.95;17.40;;;10.30;99.90;;;;;;5084838;28;20195;-74
2024/02/03 02:11:07;;;;;;;23.77;17.33;;;10.40;99.90;;;;;;5088058;28;20718;-75
2024/02/03 02:13:35;;;;;;;21.17;17.15;;;10.40;99.90;;;;;;5081049;28;20288;-72
2024/02/03 02:16:04;;;;;;;19.30;15.55;;;10.40;99.90;;;;;;5079659;28;20226;-73
2024/02/03 02:18:31;;;;;;;19.45;16.80;;;10.40;99.90;;;;;;5078265;28;20409;-73
2024/02/03 02:20:59;;;;;;;21.55;15.93;;;10.40;99.90;;;;;;5076075;28;20210;-73
2024/02/03 02:23:26;;;;;;;22.48;16.08;;;10.40;99.90;;;;;;5082866;28;20227;-72
2024/02/03 02:25:55;;;;;;;26.77;19.15;;;10.40;99.90;;;;;;5088967;28;20268;-71
2024/02/03 02:28:22;;;;;;;21.10;15.95;;;10.40;99.90;;;;;;5078892;28;20206;-74
2024/02/03 02:30:50;;;;;;;25.10;17.63;;;10.40;99.90;;;;;;5082181;28;20672;-72
2024/02/03 02:33:17;;;;;;;16.80;15.00;;;10.40;99.90;;;;;;5078103;28;20251;-74
2024/02/03 02:35:49;;;;;;;19.40;15.30;;;10.50;99.90;;;;;;5079695;28;20215;-72
2024/02/03 02:38:18;;;;;;;26.48;18.80;;;10.50;99.90;;;;;;5086488;28;20223;-72
2024/02/03 02:40:45;;;;;;;21.58;16.52;;;10.50;99.90;;;;;;5081885;28;20208;-73
2024/02/03 02:43:12;;;;;;;21.50;15.13;;;10.50;99.90;;;;;;5078535;28;20223;-72
2024/02/03 02:45:41;;;;;;;20.85;16.55;;;10.60;99.90;;;;;;5081976;28;20195;-73
2024/02/03 02:48:08;;;;;;;16.88;15.07;;;10.60;99.90;;;;;;5088881;28;20191;-71
2024/02/03 02:50:35;;;;;;;27.60;17.50;;;10.60;99.90;;;;;;5078708;28;20194;-71
2024/02/03 02:53:02;;;;;;;22.40;17.70;;;10.60;99.90;;;;;;5084293;28;20276;-74
2024/02/03 02:55:30;;;;;;;19.17;15.70;;;10.60;99.90;;;;;;5077407;28;20199;-70
2024/02/03 02:57:57;;;;;;;25.30;17.85;;;10.60;99.90;;;;;;5079722;28;20223;-75
2024/02/03 03:00:24;;;;;;;24.23;17.40;;;10.60;99.90;;;;;;5079182;28;20264;-73
2024/02/03 03:02:51;;;;;;;19.30;17.33;;;10.60;99.90;;;;;;5074568;28;20281;-72
2024/02/03 03:05:19;;;;;;;25.50;18.27;;;10.70;99.90;;;;;;5079037;28;20215;-72
2024/02/03 03:07:46;;;;;;;21.30;18.15;;;10.70;99.90;;;;;;5077137;28;20255;-71
2024/02/03 03:10:13;;;;;;;22.88;17.67;;;10.70;99.90;;;;;;5078305;28;20228;-74
2024/02/03 03:12:41;;;;;;;21.05;16.48;;;10.70;99.90;;;;;;5077860;28;20261;-72
2024/02/03 03:15:09;;;;;;;25.73;17.13;;;10.80;99.90;;;;;;5085219;28;20203;-75
2024/02/03 03:17:36;;;;;;;23.55;17.83;;;10.80;99.90;;;;;;5079523;28;20743;-75
2024/02/03 03:20:04;;;;;;;22.77;19.52;;;10.80;99.90;;;;;;5081488;28;20245;-73
2024/02/03 03:22:32;;;;;;;25.70;18.40;;;10.70;99.90;;;;;;5079627;28;20694;-73
2024/02/03 03:24:59;;;;;;;30.42;18.90;;;10.70;99.90;;;;;;5080957;28;20290;-75
2024/02/03 03:27:26;;;;;;;25.83;18.70;;;10.70;99.90;;;;;;5080721;28;20211;-71
2024/02/03 03:29:54;;;;;;;20.13;17.25;;;10.70;99.90;;;;;;5078392;28;20223;-74
2024/02/03 03:32:21;;;;;;;22.67;17.17;;;10.70;99.90;;;;;;5082396;28;20228;-72
2024/02/03 03:34:48;;;;;;;24.02;16.05;;;10.80;99.90;;;;;;5072411;28;20646;-73
2024/02/03 03:37:15;;;;;;;21.08;17.65;;;10.80;99.90;;;;;;5077623;28;20249;-72
2024/02/03 03:39:42;;;;;;;17.60;14.60;;;10.80;99.90;;;;;;5086884;28;20269;-76
2024/02/03 03:42:09;;;;;;;21.80;15.50;;;10.80;99.90;;;;;;5075879;28;20223;-72
2024/02/03 03:44:36;;;;;;;18.17;15.77;;;10.80;99.90;;;;;;5079959;28;20238;-72
2024/02/03 03:47:05;;;;;;;22.65;15.93;;;10.80;99.90;;;;;;5080672;28;20230;-71
2024/02/03 03:49:32;;;;;;;23.80;18.27;;;10.90;99.90;;;;;;5073044;28;20230;-74
2024/02/03 03:52:00;;;;;;;30.20;16.52;;;10.90;99.90;;;;;;5073056;28;20331;-70
2024/02/03 03:54:27;;;;;;;25.77;16.27;;;10.90;99.90;;;;;;5072702;28;20290;-72
2024/02/03 03:56:54;;;;;;;20.55;14.07;;;10.90;99.90;;;;;;5088220;28;20248;-75
2024/02/03 03:59:21;;;;;;;20.27;14.50;;;10.90;99.90;;;;;;5077591;28;20645;-73
2024/02/03 04:01:49;;;;;;;17.02;14.48;;;10.90;99.90;;;;;;5085013;28;20264;-74
2024/02/03 04:04:18;;;;;;;17.15;14.50;;;11.00;99.90;;;;;;5080381;28;20204;-72
2024/02/03 04:06:46;;;;;;;24.17;15.02;;;11.00;99.90;;;;;;5079950;28;20643;-74
2024/02/03 04:09:15;;;;;;;21.88;13.85;;;11.00;99.90;;;;;;5082720;28;20252;-73
2024/02/03 04:11:42;;;;;;;18.08;14.05;;;11.00;99.90;;;;;;5090116;28;20215;-72
2024/02/03 04:14:09;;;;;;;21.27;16.20;;;11.00;99.90;;;;;;5080703;28;20264;-74
2024/02/03 04:16:36;;;;;;;21.85;13.40;;;11.00;99.90;;;;;;5077514;28;20264;-74
2024/02/03 04:19:03;;;;;;;17.85;14.63;;;11.10;99.90;;;;;;5084887;28;20223;-72
2024/02/03 04:21:32;;;;;;;18.65;15.43;;;11.10;99.90;;;;;;5075866;28;20669;-75
2024/02/03 04:24:00;;;;;;;18.17;13.52;;;11.10;99.90;;;;;;5084651;28;20319;-74
2024/02/03 04:26:27;;;;;;;17.92;15.05;;;11.10;99.90;;;;;;5082990;28;20225;-71
2024/02/03 04:28:54;;;;;;;15.35;12.63;;;11.10;99.90;;;;;;5082552;28;20200;-73
2024/02/03 04:31:21;;;;;;;18.50;14.05;;;11.10;99.90;;;;;;5077859;28;20252;-74
2024/02/03 04:33:48;;;;;;;16.33;12.82;;;11.20;99.90;;;;;;5077899;28;20255;-74
2024/02/03 04:36:15;;;;;;;19.17;13.57;;;11.20;99.90;;;;;;5072089;28;20243;-75
2024/02/03 04:38:43;;;;;;;15.25;12.93;;;11.10;99.90;;;;;;5075468;28;20709;-73
2024/02/03 04:41:10;;;;;;;14.75;13.23;;;11.10;99.90;;;;;;5072241;28;20256;-76
2024/02/03 04:43:37;;;;;;;21.67;13.27;;;11.10;99.90;;;;;;5075676;28;20742;-73
2024/02/03 04:46:04;;;;;;;15.23;12.13;;;11.20;99.90;;;;;;5075470;28;20222;-73
2024/02/03 04:48:31;;;;;;;20.85;14.60;;;11.10;99.90;;;;;;5077041;28;20218;-74
2024/02/03 04:50:58;;;;;;;14.40;12.93;;;11.10;99.90;;;;;;5077288;28;20204;-73
2024/02/03 04:53:25;;;;;;;14.50;12.15;;;11.10;99.90;;;;;;5080538;28;20231;-75
2024/02/03 04:55:53;;;;;;;20.52;13.55;;;11.10;99.90;;;;;;5084018;28;20203;-73
2024/02/03 04:58:20;;;;;;;14.85;13.27;;;11.20;99.90;;;;;;5086441;28;20280;-74
2024/02/03 05:00:47;;;;;;;13.13;11.00;;;11.20;99.90;;;;;;5083855;28;20232;-73
2024/02/03 05:03:14;;;;;;;13.63;12.30;;;11.20;99.90;;;;;;5087983;28;20223;-72
2024/02/03 05:05:42;;;;;;;16.67;12.70;;;11.20;99.90;;;;;;5079930;28;20282;-75
2024/02/03 05:08:09;;;;;;;19.23;12.65;;;11.20;99.90;;;;;;5078349;28;20260;-72
2024/02/03 05:10:35;;;;;;;21.63;13.85;;;11.20;99.90;;;;;;5076513;28;20288;-72
2024/02/03 05:13:04;;;;;;;13.35;11.93;;;11.20;99.90;;;;;;5076109;28;20312;-73
2024/02/03 05:15:31;;;;;;;16.33;11.20;;;11.20;99.90;;;;;;5086417;28;20248;-73
2024/02/03 05:17:58;;;;;;;15.55;11.50;;;11.20;99.90;;;;;;5084382;28;20199;-73
2024/02/03 05:20:25;;;;;;;19.33;11.43;;;11.20;99.90;;;;;;5083572;28;20702;-75
2024/02/03 05:22:52;;;;;;;19.20;12.43;;;11.20;99.90;;;;;;5079625;28;20254;-75
2024/02/03 05:25:19;;;;;;;16.85;13.18;;;11.10;99.90;;;;;;5086077;28;20199;-73
2024/02/03 05:27:47;;;;;;;19.33;13.75;;;11.00;99.90;;;;;;5081799;28;20210;-73
2024/02/03 05:30:15;;;;;;;17.52;12.45;;;11.00;99.90;;;;;;5078811;28;20199;-73
2024/02/03 05:32:42;;;;;;;23.63;13.65;;;11.00;99.90;;;;;;5080048;28;20227;-75
2024/02/03 05:35:10;;;;;;;17.98;13.30;;;11.10;99.90;;;;;;5078088;28;20203;-72
2024/02/03 05:37:37;;;;;;;19.23;12.20;;;11.20;99.90;;;;;;5076921;28;20285;-72
2024/02/03 05:40:05;;;;;;;14.82;11.68;;;11.10;99.90;;;;;;5076969;28;20279;-73
2024/02/03 05:42:32;;;;;;;18.25;12.68;;;11.20;99.90;;;;;;5086716;28;20222;-74
2024/02/03 05:44:59;;;;;;;20.27;12.18;;;11.00;99.90;;;;;;5082465;28;20231;-73
2024/02/03 05:47:27;;;;;;;16.35;11.00;;;11.00;99.90;;;;;;5081501;28;20268;-74
2024/02/03 05:49:54;;;;;;;16.65;13.65;;;11.10;99.90;;;;;;5077923;28;20226;-73
2024/02/03 05:52:21;;;;;;;14.77;11.50;;;11.10;99.90;;;;;;5081093;28;20223;-70
2024/02/03 05:54:49;;;;;;;20.27;10.80;;;11.10;99.90;;;;;;5083807;28;20294;-74
2024/02/03 05:57:16;;;;;;;16.17;10.73;;;11.10;99.90;;;;;;5089909;28;20712;-73
2024/02/03 05:59:45;;;;;;;17.70;11.70;;;11.10;99.90;;;;;;5084767;28;20246;-71
2024/02/03 06:02:12;;;;;;;15.25;12.27;;;11.10;99.90;;;;;;5085915;28;20250;-70
2024/02/03 06:04:41;;;;;;;16.77;11.27;;;11.10;99.90;;;;;;5074974;28;20208;-73
2024/02/03 06:07:08;;;;;;;12.48;9.73;;;11.20;99.90;;;;;;5082461;28;20226;-73
2024/02/03 06:09:35;;;;;;;14.57;12.00;;;11.20;99.90;;;;;;5081175;28;20261;-72
2024/02/03 06:12:03;;;;;;;13.35;10.75;;;11.20;99.90;;;;;;5087679;28;20222;-75
2024/02/03 06:14:32;;;;;;;14.05;10.13;;;11.20;99.90;;;;;;5078502;28;20736;-73
2024/02/03 06:16:59;;;;;;;18.00;10.05;;;11.20;99.90;;;;;;5076282;28;20625;-72
2024/02/03 06:19:25;;;;;;;15.18;12.30;;;11.20;99.90;;;;;;5074397;28;20219;-72
2024/02/03 06:21:54;;;;;;;14.85;10.82;;;11.10;99.90;;;;;;5077201;28;20617;-72
2024/02/03 06:24:21;;;;;;;12.93;11.30;;;11.20;99.90;;;;;;5083728;28;20292;-73
2024/02/03 06:26:48;;;;;;;13.20;9.52;;;11.20;99.90;;;;;;5080738;28;20199;-73
2024/02/03 06:29:15;;;;;;;12.20;9.18;;;11.20;99.90;;;;;;5076180;28;20235;-72
2024/02/03 06:31:43;;;;;;;17.17;10.30;;;11.20;99.90;;;;;;5081517;28;20610;-72
2024/02/03 06:34:10;;;;;;;12.85;9.63;;;11.20;99.90;;;;;;5074425;28;20723;-73
2024/02/03 06:36:37;;;;;;;18.75;10.68;;;11.20;99.90;;;;;;5077722;28;20203;-71
2024/02/03 06:39:05;;;;;;;16.83;10.57;;;11.20;99.90;;;;;;5085473;28;20630;-73
2024/02/03 06:41:32;;;;;;;11.93;10.43;;;11.20;99.90;;;;;;5081138;28;20203;-74
2024/02/03 06:43:59;;;;;;;15.13;10.63;;;11.20;99.90;;;;;;5087250;28;20223;-74
2024/02/03 06:46:26;;;;;;;13.77;8.63;;;11.30;99.90;;;;;;5075854;28;20211;-74
2024/02/03 06:48:53;;;;;;;17.98;9.90;;;11.20;99.90;;;;;;5075580;28;20617;-74
2024/02/03 06:51:20;;;;;;;14.88;9.63;;;11.30;99.90;;;;;;5077594;28;20199;-77
2024/02/03 06:53:47;;;;;;;21.23;10.82;;;11.30;99.90;;;;;;5081812;28;20229;-73
2024/02/03 06:56:15;;;;;;;11.35;8.82;;;11.30;99.90;;;;;;5082584;28;20262;-73
2024/02/03 06:58:42;;;;;;;11.35;8.93;;;11.30;99.90;;;;;;5083099;28;20241;-74
2024/02/03 07:01:09;;;;;;;12.25;8.93;;;11.30;99.90;;;;;;5074558;28;20249;-73
2024/02/03 07:03:36;;;;;;;12.45;9.63;;;11.40;99.90;;;;;;5080721;28;20653;-74
2024/02/03 07:06:03;;;;;;;16.98;9.40;;;11.40;99.90;;;;;;5073738;28;20207;-74
2024/02/03 07:08:30;;;;;;;17.00;11.70;;;11.30;99.90;;;;;;5074706;28;20207;-74
2024/02/03 07:10:57;;;;;;;13.50;10.13;;;11.30;99.90;;;;;;5074909;28;20633;-73
2024/02/03 07:13:27;;;;;;;11.25;8.25;;;11.30;99.90;;;;;;5078026;28;20757;-71
2024/02/03 07:15:55;;;;;;;16.70;11.00;;;11.40;99.90;;;;;;5079430;28;20203;-73
2024/02/03 07:18:21;;;;;;;16.30;9.30;;;11.40;99.90;;;;;;5077884;28;20286;-74
2024/02/03 07:20:48;;;;;;;10.40;9.43;;;11.40;99.90;;;;;;5081165;28;20254;-73
2024/02/03 07:23:15;;;;;;;13.05;8.98;;;11.40;99.90;;;;;;5078408;28;20255;-74
2024/02/03 07:25:42;;;;;;;13.40;9.90;;;11.30;99.90;;;;;;5073769;28;20292;-73
2024/02/03 07:28:09;;;;;;;11.70;9.35;;;11.30;99.90;;;;;;5076643;28;20280;-73
2024/02/03 07:30:38;;;;;;;21.17;9.70;;;11.40;99.90;;;;;;5079619;28;20257;-74
2024/02/03 07:33:07;;;;;;;15.02;9.85;;;11.40;99.90;;;;;;5083743;28;20272;-74
2024/02/03 07:35:34;;;;;;;11.57;10.30;;;11.30;99.90;;;;;;5087160;28;20199;-71
2024/02/03 07:38:02;;;;;;;14.15;8.95;;;11.30;99.90;;;;;;5090415;28;20269;-72
2024/02/03 07:40:29;;;;;;;15.23;9.10;;;11.40;99.90;;;;;;5086012;28;20218;-74
2024/02/03 07:42:56;;;;;;;12.77;8.90;;;11.40;99.90;;;;;;5092198;28;20276;-71
2024/02/03 07:45:22;;;;;;;16.00;10.65;;;11.40;99.90;;;;;;5088755;28;20253;-73
2024/02/03 07:47:52;;;;;;;12.68;8.05;;;11.40;99.90;;;;;;5083035;28;20287;-75
2024/02/03 07:50:20;;;;;;;16.55;10.02;;;11.40;99.90;;;;;;5073018;28;20227;-77
2024/02/03 07:52:46;;;;;;;15.88;8.30;;;11.40;99.90;;;;;;5075441;28;20261;-74
2024/02/03 07:55:13;;;;;;;12.10;8.63;;;11.50;99.90;;;;;;5073802;28;20253;-73
2024/02/03 07:57:40;;;;;;;15.27;8.57;;;11.50;99.90;;;;;;5083173;28;20242;-74
2024/02/03 08:00:08;;;;;;;10.32;9.23;;;11.50;99.90;;;;;;5087581;28;20653;-75
2024/02/03 08:02:35;;;;;;;16.67;9.13;;;11.50;99.90;;;;;;5072597;28;20224;-75
2024/02/03 08:05:04;;;;;;;18.67;9.80;;;11.50;99.90;;;;;;5083277;28;20211;-74
2024/02/03 08:07:31;;;;;;;13.27;10.15;;;11.50;99.90;;;;;;5081628;28;20226;-72
2024/02/03 08:09:58;;;;;;;11.80;9.18;;;11.50;99.90;;;;;;5075528;28;20207;-75
2024/02/03 08:12:25;;;;;;;13.65;8.25;;;11.40;99.90;;;;;;5078553;28;20280;-76
2024/02/03 08:14:52;;;;;;;14.80;9.45;;;11.40;99.90;;;;;;5079422;28;20214;-74
2024/02/03 08:17:19;;;;;;;12.90;8.93;;;11.40;99.90;;;;;;5072295;28;20268;-76
2024/02/03 08:19:46;;;;;;;13.23;9.13;;;11.50;99.90;;;;;;5081866;28;20728;-75
2024/02/03 08:22:15;;;;;;;17.23;10.73;;;11.60;99.90;;;;;;5086965;28;20258;-75
2024/02/03 08:24:42;;;;;;;14.98;9.23;;;11.50;99.90;;;;;;5091520;28;20211;-74
2024/02/03 08:27:09;;;;;;;14.80;9.82;;;11.50;99.90;;;;;;5083852;28;20199;-75
2024/02/03 08:29:36;;;;;;;19.05;10.65;;;11.60;99.90;;;;;;5085086;28;20275;-72
2024/02/03 08:32:03;;;;;;;15.80;10.43;;;11.50;99.90;;;;;;5079449;28;20219;-75
2024/02/03 08:34:30;;;;;;;13.95;9.23;;;11.60;99.90;;;;;;5078802;28;20207;-74
2024/02/03 08:36:56;;;;;;;12.80;9.93;;;11.60;99.90;;;;;;5083239;28;20257;-74
2024/02/03 08:39:25;;;;;;;16.75;11.60;;;11.60;99.90;;;;;;5086528;28;20202;-74
2024/02/03 08:41:52;;;;;;;21.30;8.98;;;11.60;99.90;;;;;;5083042;28;20280;-75
2024/02/03 08:44:19;;;;;;;14.52;10.20;;;11.60;99.90;;;;;;5084925;28;20661;-75
2024/02/03 08:46:46;;;;;;;14.18;9.48;;;11.50;99.90;;;;;;5090683;28;20260;-72
2024/02/03 08:49:13;;;;;;;16.33;9.52;;;11.50;99.90;;;;;;5090973;28;20206;-73
2024/02/03 08:51:40;;;;;;;12.80;9.95;;;11.50;99.90;;;;;;5089348;28;20241;-74
2024/02/03 08:54:07;;;;;;;14.93;11.00;;;11.60;99.90;;;;;;5081631;28;20260;-74
2024/02/03 08:56:35;;;;;;;12.85;9.93;;;11.50;99.90;;;;;;5091763;28;20553;-73
2024/02/03 08:59:02;;;;;;;18.70;9.50;;;11.60;99.90;;;;;;5088355;28;20576;-74
2024/02/03 09:01:29;;;;;;;13.57;9.93;;;11.60;99.90;;;;;;5085379;28;20257;-73
2024/02/03 09:03:57;;;;;;;17.02;10.75;;;11.60;99.90;;;;;;5087940;28;20218;-74
2024/02/03 09:06:24;;;;;;;15.27;10.32;;;11.60;99.90;;;;;;5078326;28;20203;-74
2024/02/03 09:08:52;;;;;;;13.35;9.85;;;11.60;99.90;;;;;;5080690;28;20266;-73
2024/02/03 09:11:19;;;;;;;12.40;9.15;;;11.50;99.90;;;;;;5082279;28;20665;-73
2024/02/03 09:13:47;;;;;;;15.68;11.68;;;11.60;99.90;;;;;;5091308;28;20234;-72
2024/02/03 09:16:15;;;;;;;12.32;9.93;;;11.60;99.90;;;;;;5082594;28;20196;-72
2024/02/03 09:18:42;;;;;;;15.68;10.27;;;11.60;99.90;;;;;;5080550;28;20206;-73
2024/02/03 09:21:10;;;;;;;17.42;9.35;;;11.60;99.90;;;;;;5085671;28;20218;-72
2024/02/03 09:23:39;;;;;;;20.58;10.30;;;11.60;99.90;;;;;;5091074;28;20644;-72
2024/02/03 09:26:08;;;;;;;14.43;10.13;;;11.60;99.90;;;;;;5079881;28;20204;-74
2024/02/03 09:28:35;;;;;;;17.27;9.93;;;11.70;99.90;;;;;;5087895;28;20203;-75
2024/02/03 09:31:05;;;;;;;12.85;10.00;;;11.70;99.90;;;;;;5077793;28;20206;-74
2024/02/03 09:33:32;;;;;;;14.35;9.38;;;11.60;99.90;;;;;;5077955;28;20800;-75
2024/02/03 09:35:59;;;;;;;10.95;8.57;;;11.60;99.90;;;;;;5088809;28;20249;-73
2024/02/03 09:38:26;;;;;;;15.77;9.88;;;11.70;99.90;;;;;;5085724;28;20665;-73
2024/02/03 09:40:55;;;;;;;15.20;9.15;;;11.70;99.90;;;;;;5078051;28;20250;-74
2024/02/03 09:43:25;;;;;;;11.85;8.40;;;11.70;99.90;;;;;;5082717;28;20223;-74
2024/02/03 09:45:52;;;;;;;18.73;9.52;;;11.70;99.90;;;;;;5078973;28;20233;-75
2024/02/03 09:48:22;;;;;;;14.25;9.95;;;11.70;99.90;;;;;;5075303;28;20249;-73
2024/02/03 09:50:50;;;;;;;14.38;8.80;;;11.80;99.90;;;;;;5074927;28;20541;-73
2024/02/03 09:53:17;;;;;;;14.20;9.20;;;11.80;99.90;;;;;;5080487;28;20223;-72
2024/02/03 09:55:44;;;;;;;13.30;8.45;;;11.90;99.90;;;;;;5074814;28;20628;-76
2024/02/03 09:58:13;;;;;;;15.63;9.50;;;12.00;99.90;;;;;;5073973;28;20757;-75
2024/02/03 10:00:39;;;;;;;11.40;9.07;;;12.00;99.90;;;;;;5074896;28;20211;-73
2024/02/03 10:03:17;;;;;;;15.20;9.07;;;12.00;99.90;;;;;;5083227;28;20296;-75
2024/02/03 10:05:45;;;;;;;13.70;9.43;;;12.00;99.90;;;;;;5080003;28;20282;-76
2024/02/03 10:08:12;;;;;;;18.98;10.88;;;12.00;99.90;;;;;;5077683;28;20260;-74
2024/02/03 10:10:40;;;;;;;11.70;9.43;;;12.00;99.90;;;;;;5080538;28;20292;-74
2024/02/03 10:13:08;;;;;;;14.48;8.40;;;12.00;99.90;;;;;;5075874;28;20684;-72
2024/02/03 10:15:36;;;;;;;13.85;9.32;;;11.90;99.90;;;;;;5079053;28;20213;-75
2024/02/03 10:18:03;;;;;;;19.67;9.20;;;11.80;99.90;;;;;;5078343;28;20294;-73
2024/02/03 10:20:30;;;;;;;11.23;7.95;;;11.90;99.90;;;;;;5075124;28;20255;-73
2024/02/03 10:22:59;;;;;;;13.48;8.80;;;11.90;99.90;;;;;;5074126;28;20223;-74
2024/02/03 10:25:28;;;;;;;13.23;8.88;;;11.90;99.90;;;;;;5074248;28;20264;-75
2024/02/03 10:28:03;;;;;;;13.40;8.63;;;11.80;99.90;;;;;;5076579;28;20207;-74
2024/02/03 10:30:30;;;;;;;12.88;9.60;;;11.80;99.90;;;;;;5079849;28;20217;-73
2024/02/03 10:33:01;;;;;;;14.02;8.90;;;11.80;99.90;;;;;;5081776;28;20281;-84
2024/02/03 10:35:29;;;;;;;14.55;8.63;;;11.80;99.90;;;;;;5076518;28;20199;-76
2024/02/03 10:37:56;;;;;;;13.85;8.15;;;11.90;99.90;;;;;;5081550;28;20199;-75
2024/02/03 10:40:26;;;;;;;11.35;9.27;;;11.90;99.90;;;;;;5074128;28;20716;-74
2024/02/03 10:42:55;;;;;;;11.07;7.72;;;11.90;99.90;;;;;;5078472;28;20230;-76
2024/02/03 10:45:27;;;;;;;13.57;9.27;;;11.90;99.90;;;;;;5073371;28;20200;-76
2024/02/03 10:47:57;;;;;;;10.55;8.32;;;12.00;99.90;;;;;;5082514;28;20230;-77
2024/02/03 10:50:28;;;;;;;11.57;10.13;;;11.80;99.90;;;;;;5076961;28;20287;-74
2024/02/03 10:52:59;;;;;;;10.85;7.25;;;11.90;99.90;;;;;;5072646;28;20227;-75
2024/02/03 10:55:30;;;;;;;10.27;7.25;;;11.90;99.90;;;;;;5080428;28;20279;-75
2024/02/03 10:57:58;;;;;;;12.18;8.15;;;11.80;99.90;;;;;;5082883;28;20581;-76
2024/02/03 11:00:29;;;;;;;14.90;8.88;;;11.80;99.90;;;;;;5074339;28;20230;-75
2024/02/03 11:03:00;;;;;;;10.25;8.00;;;11.90;99.90;;;;;;5081389;28;20681;-78
2024/02/03 11:05:28;;;;;;;13.00;7.50;;;11.80;99.90;;;;;;5073089;28;20306;-76
2024/02/03 11:07:55;;;;;;;11.93;7.20;;;11.90;99.90;;;;;;5082824;28;20245;-76
2024/02/03 11:10:29;;;;;;;16.75;8.80;;;11.90;99.90;;;;;;5079463;28;20629;-78
2024/02/03 11:13:02;;;;;;;13.82;8.10;;;12.00;99.90;;;;;;5074592;28;20222;-77
2024/02/03 11:15:29;;;;;;;15.10;7.78;;;11.90;99.90;;;;;;5082656;28;20215;-75
2024/02/03 11:18:06;;;;;;;12.80;7.28;;;12.00;99.90;;;;;;5082039;28;20278;-77
2024/02/03 11:20:33;;;;;;;11.93;6.57;;;12.00;99.90;;;;;;5076471;28;20250;-76
2024/02/03 11:23:00;;;;;;;17.02;8.75;;;12.00;99.90;;;;;;5077293;28;20371;-76
2024/02/03 11:25:29;;;;;;;12.68;7.35;;;12.10;99.90;;;;;;5071236;28;20291;-76
2024/02/03 11:27:56;;;;;;;8.00;6.72;;;12.10;99.90;;;;;;5076412;28;20191;-76
2024/02/03 11:30:23;;;;;;;17.17;8.57;;;12.20;99.90;;;;;;5080799;28;20721;-80
2024/02/03 11:32:55;;;;;;;10.15;6.32;;;12.00;99.90;;;;;;5080337;28;20234;-77
2024/02/03 11:35:21;;;;;;;8.30;6.50;;;12.00;99.90;;;;;;5077439;28;20199;-77
2024/02/03 11:37:48;;;;;;;10.57;6.43;;;12.00;99.90;;;;;;5081139;28;20247;-77
2024/02/03 11:40:16;;;;;;;15.02;6.35;;;12.00;99.90;;;;;;5075595;28;20249;-78
2024/02/03 11:42:45;;;;;;;11.05;7.32;;;12.00;99.90;;;;;;5083480;28;20219;-76
2024/02/03 11:45:14;;;;;;;12.23;7.25;;;12.00;99.90;;;;;;5073808;28;20589;-75
2024/02/03 11:47:41;;;;;;;14.60;6.78;;;12.10;99.90;;;;;;5080606;28;20262;-74
2024/02/03 11:50:09;;;;;;;7.72;6.13;;;12.10;99.90;;;;;;5083330;28;20207;-78
2024/02/03 11:52:36;;;;;;;11.15;6.00;;;12.10;99.90;;;;;;5080668;28;20253;-75
2024/02/03 11:55:04;;;;;;;9.85;6.75;;;12.00;99.90;;;;;;5083319;28;20203;-78
2024/02/03 11:57:31;;;;;;;11.90;7.32;;;12.00;99.90;;;;;;5089751;28;20671;-77
2024/02/03 12:00:00;;;;;;;12.07;6.68;;;12.00;99.90;;;;;;5081198;28;20203;-76
2024/02/03 12:02:29;;;;;;;8.85;6.22;;;12.00;99.90;;;;;;5072903;28;20234;-77
2024/02/03 12:04:56;;;;;;;9.50;5.50;;;12.00;99.90;;;;;;5084848;28;20234;-77
2024/02/03 12:07:23;;;;;;;11.65;6.60;;;12.00;99.90;;;;;;5071528;28;20210;-75
2024/02/03 12:09:50;;;;;;;10.43;5.70;;;12.00;99.90;;;;;;5078462;28;20226;-79
2024/02/03 12:12:18;;;;;;;11.05;6.20;;;11.90;99.90;;;;;;5071410;28;20242;-74
2024/02/03 12:14:45;;;;;;;26.95;6.50;;;11.80;99.90;;;;;;5075348;28;20282;-74
2024/02/03 12:17:13;;;;;;;8.05;5.82;;;11.90;99.90;;;;;;5075425;28;20207;-78
2024/02/03 12:19:41;;;;;;;14.38;6.97;;;12.00;99.90;;;;;;5081787;28;20261;-75
2024/02/03 12:22:08;;;;;;;13.73;6.63;;;12.00;99.90;;;;;;5073899;28;20230;-77
2024/02/03 12:24:35;;;;;;;9.02;6.70;;;11.90;99.90;;;;;;5084975;28;20203;-77
2024/02/03 12:27:02;;;;;;;10.05;7.80;;;11.80;99.90;;;;;;5071773;28;20199;-76
2024/02/03 12:29:29;;;;;;;12.65;6.38;;;11.90;99.90;;;;;;5082179;28;20207;-77
2024/02/03 12:31:56;;;;;;;7.85;7.10;;;11.90;99.90;;;;;;5087203;28;20202;-76